createdAt,value
2018-12-10T00:02:29.565Z,6.31
2018-12-10T00:05:14.753Z,6.26
2018-12-10T00:10:45.524Z,6.18
2018-12-10T00:13:26.034Z,6.23
2018-12-10T00:16:07.723Z,6.14
2018-12-10T00:18:45.544Z,6.20
2018-12-10T00:21:27.412Z,6.33
2018-12-10T00:24:07.752Z,6.17
2018-12-10T00:26:43.059Z,6.20
2018-12-10T00:29:21.065Z,6.20
2018-12-10T00:31:59.351Z,6.24
2018-12-10T00:34:36.548Z,6.26
2018-12-10T00:37:12.618Z,6.19
2018-12-10T00:39:49.352Z,6.23
2018-12-10T00:42:23.381Z,6.14
2018-12-10T00:45:04.058Z,6.18
2018-12-10T00:47:39.483Z,6.24
2018-12-10T00:50:24.955Z,6.14
2018-12-10T00:52:59.572Z,6.11
2018-12-10T00:55:36.550Z,6.11
2018-12-10T00:58:12.917Z,6.08
2018-12-10T01:00:48.319Z,6.12
2018-12-10T01:03:25.394Z,6.17
2018-12-10T01:06:04.272Z,6.05
2018-12-10T01:08:40.429Z,6.05
2018-12-10T01:11:19.870Z,6.13
2018-12-10T01:13:56.411Z,6.08
2018-12-10T01:16:30.691Z,6.02
2018-12-10T01:19:07.214Z,6.02
2018-12-10T01:21:44.628Z,6.08
2018-12-10T01:24:23.013Z,6.04
2018-12-10T01:26:57.978Z,6.01
2018-12-10T01:29:34.260Z,6.05
2018-12-10T01:32:08.456Z,6.09
2018-12-10T01:34:47.085Z,6.10
2018-12-10T01:37:20.829Z,6.13
2018-12-10T01:39:59.063Z,5.95
2018-12-10T01:42:36.657Z,5.89
2018-12-10T01:45:10.868Z,5.89
2018-12-10T01:47:53.756Z,5.83
2018-12-10T01:50:31.673Z,5.77
2018-12-10T01:53:08.578Z,5.81
2018-12-10T01:55:45.750Z,5.80
2018-12-10T01:58:21.041Z,5.79
2018-12-10T02:00:56.551Z,5.77
2018-12-10T02:03:33.810Z,5.69
2018-12-10T02:06:17.177Z,5.77
2018-12-10T02:09:01.212Z,5.73
2018-12-10T02:11:43.233Z,5.57
2018-12-10T02:14:19.645Z,5.60
2018-12-10T02:16:55.519Z,5.66
2018-12-10T02:19:32.642Z,5.72
2018-12-10T02:22:13.096Z,5.61
2018-12-10T02:24:53.725Z,5.59
2018-12-10T02:27:30.781Z,5.59
2018-12-10T02:30:08.836Z,5.63
2018-12-10T02:32:43.412Z,5.59
2018-12-10T02:35:18.259Z,5.55
2018-12-10T02:37:54.973Z,5.62
2018-12-10T02:40:29.525Z,5.57
2018-12-10T02:43:14.441Z,5.57
2018-12-10T02:45:53.221Z,5.75
2018-12-10T02:48:28.688Z,5.58
2018-12-10T02:51:08.115Z,5.51
2018-12-10T02:53:47.097Z,5.65
2018-12-10T02:56:23.316Z,5.51
2018-12-10T02:58:59.851Z,5.62
2018-12-10T03:01:43.914Z,5.62
2018-12-10T03:04:18.151Z,5.59
2018-12-10T03:07:00.152Z,5.58
2018-12-10T03:09:36.063Z,5.62
2018-12-10T03:19:56.431Z,5.61
2018-12-10T03:22:39.929Z,5.72
2018-12-10T03:25:19.261Z,5.68
2018-12-10T03:27:55.267Z,5.73
2018-12-10T03:30:33.987Z,5.74
2018-12-10T03:33:10.808Z,5.74
2018-12-10T03:35:49.907Z,5.76
2018-12-10T03:38:27.316Z,5.72
2018-12-10T03:41:07.357Z,5.68
2018-12-10T03:43:41.126Z,5.71
2018-12-10T03:46:20.172Z,5.83
2018-12-10T03:48:50.670Z,5.77
2018-12-10T03:51:21.738Z,5.87
2018-12-10T03:53:53.604Z,5.74
2018-12-10T03:56:25.570Z,5.74
2018-12-10T03:58:57.215Z,5.78
2018-12-10T04:01:28.500Z,5.83
2018-12-10T04:03:59.739Z,5.80
2018-12-10T04:06:34.604Z,5.76
2018-12-10T04:09:15.361Z,5.70
2018-12-10T04:11:58.713Z,5.75
2018-12-10T04:14:33.775Z,5.83
2018-12-10T04:17:13.100Z,5.72
2018-12-10T04:19:49.479Z,5.76
2018-12-10T04:22:25.842Z,5.86
2018-12-10T04:25:02.352Z,5.81
2018-12-10T04:27:47.682Z,5.79
2018-12-10T04:30:26.501Z,5.82
2018-12-10T04:33:02.643Z,5.78
2018-12-10T04:35:40.116Z,5.79
2018-12-10T04:38:16.913Z,5.72
2018-12-10T04:40:53.712Z,5.81
2018-12-10T04:43:28.803Z,5.78
2018-12-10T04:46:04.136Z,5.73
2018-12-10T04:48:38.709Z,5.73
2018-12-10T04:51:14.268Z,5.77
2018-12-10T04:53:48.722Z,5.70
2018-12-10T04:56:27.135Z,5.69
2018-12-10T04:59:03.975Z,5.69
2018-12-10T05:01:38.791Z,5.67
2018-12-10T05:04:17.494Z,5.66
2018-12-10T05:06:54.613Z,5.70
2018-12-10T05:09:29.136Z,5.68
2018-12-10T05:12:05.774Z,5.77
2018-12-10T05:14:47.075Z,5.69
2018-12-10T05:17:21.401Z,5.65
2018-12-10T05:20:02.205Z,5.67
2018-12-10T05:22:42.072Z,5.76
2018-12-10T05:27:52.106Z,5.77
2018-12-10T05:30:25.891Z,5.70
2018-12-10T05:33:02.422Z,5.75
2018-12-10T05:35:39.839Z,5.78
2018-12-10T05:38:14.978Z,5.72
2018-12-10T05:40:52.933Z,5.70
2018-12-10T05:43:30.012Z,5.92
2018-12-10T05:46:04.488Z,5.85
2018-12-10T05:48:43.593Z,5.77
2018-12-10T05:51:18.047Z,5.80
2018-12-10T05:53:52.562Z,5.82
2018-12-10T05:56:33.150Z,5.85
2018-12-10T05:59:12.870Z,5.88
2018-12-10T06:01:46.057Z,5.87
2018-12-10T06:04:29.532Z,5.83
2018-12-10T06:07:03.410Z,5.83
2018-12-10T06:09:38.852Z,5.75
2018-12-10T06:12:15.526Z,5.82
2018-12-10T06:14:56.377Z,5.87
2018-12-10T06:17:32.620Z,5.79
2018-12-10T06:20:09.340Z,5.71
2018-12-10T06:22:46.398Z,5.57
2018-12-10T06:25:18.285Z,5.50
2018-12-10T06:27:53.577Z,5.73
2018-12-10T06:30:47.576Z,5.76
2018-12-10T06:33:36.951Z,5.81
2018-12-10T06:36:11.808Z,5.83
2018-12-10T06:38:43.582Z,5.79
2018-12-10T06:41:21.108Z,5.86
2018-12-10T06:44:04.677Z,5.83
2018-12-10T06:46:46.537Z,5.76
2018-12-10T06:49:23.337Z,5.80
2018-12-10T06:51:57.595Z,5.87
2018-12-10T06:54:31.796Z,5.92
2018-12-10T06:57:08.536Z,6.01
2018-12-10T06:59:45.081Z,6.07
2018-12-10T07:02:19.694Z,5.98
2018-12-10T07:05:03.305Z,5.92
2018-12-10T07:07:40.378Z,5.92
2018-12-10T07:10:17.365Z,5.87
2018-12-10T07:13:17.096Z,5.90
2018-12-10T07:15:51.942Z,5.84
2018-12-10T07:18:35.611Z,5.90
2018-12-10T07:21:08.234Z,5.80
2018-12-10T07:23:49.031Z,5.69
2018-12-10T07:26:25.167Z,5.73
2018-12-10T07:29:08.422Z,5.72
2018-12-10T07:31:43.281Z,5.67
2018-12-10T07:34:20.534Z,5.92
2018-12-10T07:36:57.487Z,5.85
2018-12-10T07:39:37.569Z,5.83
2018-12-10T07:42:18.157Z,5.96
2018-12-10T07:44:58.255Z,5.89
2018-12-10T07:47:34.962Z,5.93
2018-12-10T07:50:16.322Z,5.89
2018-12-10T07:52:50.535Z,5.93
2018-12-10T07:55:28.945Z,6.00
2018-12-10T07:58:11.659Z,5.94
2018-12-10T08:00:55.175Z,5.89
2018-12-10T08:03:44.917Z,5.85
2018-12-10T08:06:43.162Z,5.98
2018-12-10T08:09:20.384Z,5.94
2018-12-10T08:11:56.994Z,5.81
2018-12-10T08:14:34.695Z,5.99
2018-12-10T08:17:11.625Z,5.98
2018-12-10T08:19:49.118Z,5.93
2018-12-10T08:22:22.911Z,5.87
2018-12-10T08:24:57.544Z,5.92
2018-12-10T08:27:31.091Z,5.91
2018-12-10T08:30:07.385Z,5.95
2018-12-10T08:32:54.961Z,5.85
2018-12-10T08:35:29.843Z,5.92
2018-12-10T08:38:12.942Z,5.60
2018-12-10T08:40:47.873Z,5.67
2018-12-10T08:46:23.746Z,5.70
2018-12-10T08:49:13.998Z,5.55
2018-12-10T08:51:56.447Z,5.53
2018-12-10T08:54:34.096Z,5.76
2018-12-10T08:57:18.920Z,5.57
2018-12-10T08:59:56.556Z,5.58
2018-12-10T09:02:30.873Z,5.77
2018-12-10T09:05:19.285Z,5.62
2018-12-10T09:08:01.888Z,5.55
2018-12-10T09:10:40.483Z,5.81
2018-12-10T09:13:20.160Z,5.66
2018-12-10T09:15:59.335Z,5.69
2018-12-10T09:18:36.625Z,5.62
2018-12-10T09:21:13.862Z,5.70
2018-12-10T09:23:52.125Z,5.62
2018-12-10T09:26:29.084Z,5.85
2018-12-10T09:29:14.180Z,5.93
2018-12-10T09:32:04.493Z,5.90
2018-12-10T09:34:42.187Z,6.03
2018-12-10T09:37:22.034Z,5.87
2018-12-10T09:40:11.389Z,5.80
2018-12-10T09:42:48.703Z,5.81
2018-12-10T09:48:32.602Z,5.58
2018-12-10T09:51:15.735Z,5.65
2018-12-10T09:53:50.776Z,5.65
2018-12-10T09:56:24.472Z,5.71
2018-12-10T09:59:01.278Z,5.76
2018-12-10T10:01:43.796Z,5.90
2018-12-10T10:04:40.650Z,5.99
2018-12-10T10:07:17.845Z,6.03
2018-12-10T10:09:55.318Z,6.10
2018-12-10T10:12:38.935Z,6.15
2018-12-10T10:15:17.204Z,6.22
2018-12-10T10:17:55.025Z,6.27
2018-12-10T10:20:39.331Z,6.29
2018-12-10T10:23:16.558Z,6.24
2018-12-10T10:25:53.443Z,6.21
2018-12-10T10:28:30.969Z,6.22
2018-12-10T10:31:05.452Z,6.26
2018-12-10T10:33:42.095Z,6.23
2018-12-10T10:36:17.565Z,6.32
2018-12-10T10:39:06.052Z,6.36
2018-12-10T10:41:44.403Z,6.46
2018-12-10T10:44:26.902Z,6.36
2018-12-10T10:47:01.049Z,6.49
2018-12-10T10:49:38.066Z,6.55
2018-12-10T10:52:12.578Z,6.62
2018-12-10T10:54:49.911Z,6.69
2018-12-10T10:59:39.635Z,6.72
2018-12-10T11:05:20.076Z,6.93
2018-12-10T11:07:59.360Z,6.77
2018-12-10T11:10:40.624Z,6.74
2018-12-10T11:13:18.729Z,6.62
2018-12-10T11:16:01.837Z,6.57
2018-12-10T11:18:52.619Z,6.59
2018-12-10T11:21:38.174Z,6.39
2018-12-10T11:24:21.090Z,6.33
2018-12-10T11:27:01.874Z,6.21
2018-12-10T11:29:52.098Z,6.15
2018-12-10T11:32:42.929Z,6.24
2018-12-10T11:35:26.996Z,6.03
2018-12-10T11:38:05.307Z,5.95
2018-12-10T11:40:49.299Z,6.02
2018-12-10T11:43:30.752Z,5.98
2018-12-10T11:46:09.834Z,5.92
2018-12-10T11:48:48.012Z,6.01
2018-12-10T11:51:26.385Z,6.06
2018-12-10T11:54:15.565Z,6.05
2018-12-10T11:57:12.008Z,6.15
2018-12-10T11:59:54.502Z,6.20
2018-12-10T12:02:33.925Z,6.29
2018-12-10T12:05:18.054Z,6.24
2018-12-10T12:08:06.612Z,6.21
2018-12-10T12:10:44.229Z,6.40
2018-12-10T12:13:22.815Z,6.23
2018-12-10T12:16:15.930Z,6.27
2018-12-10T12:19:01.083Z,6.23
2018-12-10T12:21:44.084Z,6.22
2018-12-10T12:24:21.769Z,6.15
2018-12-10T12:27:08.949Z,6.19
2018-12-10T12:29:44.180Z,6.19
2018-12-10T12:32:29.648Z,6.28
2018-12-10T12:35:18.507Z,6.27
2018-12-10T12:38:01.386Z,6.36
2018-12-10T12:40:39.404Z,6.43
2018-12-10T12:43:17.642Z,6.36
2018-12-10T12:45:54.672Z,6.40
2018-12-10T12:48:35.083Z,6.29
2018-12-10T12:51:10.986Z,6.40
2018-12-10T12:53:54.566Z,6.47
2018-12-10T12:56:35.593Z,6.43
2018-12-10T12:59:18.053Z,6.48
2018-12-10T13:02:01.434Z,6.51
2018-12-10T13:04:39.873Z,6.58
2018-12-10T13:07:16.723Z,6.61
2018-12-10T13:10:02.185Z,6.32
2018-12-10T13:12:40.908Z,6.13
2018-12-10T13:15:18.867Z,6.05
2018-12-10T13:18:15.274Z,5.99
2018-12-10T13:20:53.915Z,5.94
2018-12-10T13:23:40.026Z,5.91
2018-12-10T13:26:19.733Z,5.92
2018-12-10T13:29:06.827Z,5.92
2018-12-10T13:31:43.600Z,6.05
2018-12-10T13:34:20.985Z,6.01
2018-12-10T13:36:58.985Z,6.12
2018-12-10T13:39:37.829Z,6.13
2018-12-10T13:42:24.648Z,6.18
2018-12-10T13:45:24.211Z,6.20
2018-12-10T13:48:07.379Z,6.33
2018-12-10T13:50:51.210Z,6.32
2018-12-10T13:53:35.359Z,6.40
2018-12-10T13:56:08.183Z,6.46
2018-12-10T13:58:56.296Z,6.45
2018-12-10T14:01:41.758Z,6.40
2018-12-10T14:04:25.825Z,6.52
2018-12-10T14:07:09.873Z,6.61
2018-12-10T14:09:48.734Z,6.62
2018-12-10T14:12:34.374Z,6.54
2018-12-10T14:15:34.115Z,6.60
2018-12-10T14:18:17.995Z,6.59
2018-12-10T14:21:07.251Z,6.59
2018-12-10T14:27:42.384Z,6.72
2018-12-10T14:30:33.975Z,6.77
2018-12-10T14:33:10.913Z,6.80
2018-12-10T14:35:47.942Z,6.82
2018-12-10T14:38:31.359Z,6.80
2018-12-10T14:41:16.162Z,6.79
2018-12-10T14:43:55.717Z,6.79
2018-12-10T14:46:32.783Z,6.83
2018-12-10T14:49:06.570Z,6.75
2018-12-10T14:51:44.457Z,6.69
2018-12-10T14:54:31.821Z,6.70
2018-12-10T14:57:17.936Z,6.68
2018-12-10T15:00:01.976Z,6.65
2018-12-10T15:02:39.422Z,6.55
2018-12-10T15:05:21.011Z,6.66
2018-12-10T15:07:57.895Z,6.67
2018-12-10T15:10:34.761Z,6.70
2018-12-10T15:13:13.934Z,6.71
2018-12-10T15:15:53.316Z,6.67
2018-12-10T15:18:33.539Z,6.75
2018-12-10T15:21:10.468Z,6.69
2018-12-10T15:23:59.976Z,6.72
2018-12-10T15:26:40.109Z,6.77
2018-12-10T15:29:22.198Z,6.67
2018-12-10T15:31:59.904Z,6.69
2018-12-10T15:34:55.629Z,6.72
2018-12-10T15:37:27.199Z,6.68
2018-12-10T15:40:05.188Z,6.64
2018-12-10T15:42:59.880Z,6.66
2018-12-10T15:52:13.866Z,6.70
2018-12-10T15:54:52.886Z,6.68
2018-12-10T15:57:29.876Z,6.81
2018-12-10T16:00:12.602Z,6.80
2018-12-10T16:02:51.516Z,6.88
2018-12-10T16:05:34.696Z,6.85
2018-12-10T16:08:18.875Z,6.88
2018-12-10T16:13:47.395Z,6.85
2018-12-10T16:16:24.033Z,6.87
2018-12-10T16:28:14.850Z,6.81
2018-12-10T16:30:59.545Z,6.73
2018-12-10T16:33:43.834Z,6.72
2018-12-10T16:36:20.633Z,6.71
2018-12-10T16:39:08.487Z,6.63
2018-12-10T16:48:16.228Z,6.60
2018-12-10T16:53:59.043Z,6.63
2018-12-10T16:56:42.729Z,6.64
2018-12-10T17:02:58.197Z,6.74
2018-12-10T17:09:07.953Z,6.71
2018-12-10T17:12:10.178Z,6.53
2018-12-10T17:14:54.429Z,6.42
2018-12-10T17:17:50.861Z,6.43
2018-12-10T17:20:41.635Z,6.49
2018-12-10T17:23:37.378Z,6.51
2018-12-10T17:29:24.232Z,6.48
2018-12-10T17:32:19.866Z,6.42
2018-12-10T17:35:02.672Z,6.47
2018-12-10T17:37:45.400Z,6.44
2018-12-10T17:40:19.497Z,6.46
2018-12-10T17:43:12.762Z,6.42
2018-12-10T17:45:53.331Z,6.44
2018-12-10T17:48:36.694Z,6.50
2018-12-10T17:51:14.313Z,6.42
2018-12-10T17:53:55.398Z,6.43
2018-12-10T17:56:33.001Z,6.44
2018-12-10T17:59:08.316Z,6.48
2018-12-10T18:01:58.752Z,6.41
2018-12-10T18:04:39.619Z,6.50
2018-12-10T18:07:16.702Z,6.52
2018-12-10T18:09:54.340Z,6.45
2018-12-10T18:12:30.732Z,6.40
2018-12-10T18:15:06.384Z,6.34
2018-12-10T18:17:45.652Z,6.41
2018-12-10T18:21:14.617Z,6.34
2018-12-10T18:23:56.436Z,6.34
2018-12-10T18:26:35.138Z,6.27
2018-12-10T18:29:09.895Z,6.28
2018-12-10T18:31:43.776Z,6.35
2018-12-10T18:34:34.257Z,6.31
2018-12-10T18:37:28.982Z,6.18
2018-12-10T18:40:07.491Z,6.17
2018-12-10T18:46:11.300Z,6.23
2018-12-10T18:48:48.255Z,6.23
2018-12-10T18:51:30.270Z,6.29
2018-12-10T18:54:17.064Z,6.14
2018-12-10T18:56:59.906Z,6.17
2018-12-10T18:59:43.221Z,6.20
2018-12-10T19:02:31.329Z,6.05
2018-12-10T19:05:14.324Z,6.05
2018-12-10T19:08:02.138Z,6.01
2018-12-10T19:10:49.474Z,6.07
2018-12-10T19:13:33.175Z,6.06
2018-12-10T19:18:44.536Z,6.08
2018-12-10T19:21:24.742Z,6.08
2018-12-10T19:24:08.129Z,5.92
2018-12-10T19:30:01.502Z,5.89
2018-12-10T19:32:43.061Z,5.95
2018-12-10T19:35:32.045Z,5.99
2018-12-10T19:38:14.920Z,5.97
2018-12-10T19:44:16.548Z,5.85
2018-12-10T19:47:01.945Z,5.88
2018-12-10T19:50:00.306Z,5.90
2018-12-10T19:52:49.336Z,5.95
2018-12-10T19:55:31.940Z,5.84
2018-12-10T19:58:10.599Z,5.91
2018-12-10T20:01:01.683Z,5.96
2018-12-10T20:03:44.516Z,5.95
2018-12-10T20:06:29.897Z,5.90
2018-12-10T20:09:10.215Z,6.05
2018-12-10T20:11:49.113Z,5.94
2018-12-10T20:14:37.229Z,5.92
2018-12-10T20:17:11.820Z,5.96
2018-12-10T20:19:51.042Z,5.97
2018-12-10T20:22:26.111Z,5.98
2018-12-10T20:25:09.005Z,6.01
2018-12-10T20:27:48.991Z,5.92
2018-12-10T20:30:29.100Z,6.01
2018-12-10T20:33:20.086Z,5.97
2018-12-10T20:36:05.932Z,6.01
2018-12-10T20:38:42.261Z,6.01
2018-12-10T20:41:20.350Z,6.05
2018-12-10T20:44:00.864Z,6.04
2018-12-10T20:46:49.375Z,6.04
2018-12-10T20:49:28.417Z,6.12
2018-12-10T20:52:10.773Z,5.97
2018-12-10T20:54:46.778Z,6.00
2018-12-10T20:57:23.809Z,6.08
2018-12-10T21:00:00.816Z,6.12
2018-12-10T21:02:42.534Z,6.13
2018-12-10T21:05:16.707Z,6.11
2018-12-10T21:07:54.379Z,6.19
2018-12-10T21:10:29.085Z,6.10
2018-12-10T21:13:11.724Z,6.18
2018-12-10T21:16:04.325Z,6.19
2018-12-10T21:18:55.256Z,6.20
2018-12-10T21:21:36.519Z,6.12
2018-12-10T21:24:14.435Z,6.19
2018-12-10T21:26:54.551Z,6.19
2018-12-10T21:29:36.253Z,6.18
2018-12-10T21:32:12.834Z,6.17
2018-12-10T21:34:47.562Z,6.12
2018-12-10T21:40:16.678Z,6.19
2018-12-10T21:42:51.727Z,6.16
2018-12-10T21:45:29.941Z,6.16
2018-12-10T21:48:08.040Z,6.16
2018-12-10T21:50:40.696Z,6.16
2018-12-10T21:53:28.035Z,6.05
2018-12-10T21:56:07.027Z,6.00
2018-12-10T21:58:40.386Z,6.04
2018-12-10T22:01:22.956Z,5.98
2018-12-10T22:04:02.280Z,6.02
2018-12-10T22:06:40.263Z,6.00
2018-12-10T22:09:21.475Z,5.99
2018-12-10T22:15:17.789Z,5.87
2018-12-10T22:17:58.818Z,5.85
2018-12-10T22:20:41.819Z,5.94
2018-12-10T22:23:23.120Z,5.90
2018-12-10T22:26:02.414Z,5.99
2018-12-10T22:28:39.500Z,5.91
2018-12-10T22:31:14.767Z,5.88
2018-12-10T22:33:52.374Z,5.95
2018-12-10T22:36:38.424Z,6.04
2018-12-10T22:39:15.707Z,5.91
2018-12-10T22:41:54.494Z,5.95
2018-12-10T22:44:33.428Z,5.88
2018-12-10T22:47:08.329Z,5.91
2018-12-10T22:49:46.541Z,5.91
2018-12-10T22:52:25.996Z,5.82
2018-12-10T22:55:05.433Z,5.83
2018-12-10T22:57:49.262Z,5.84
2018-12-10T23:00:32.070Z,5.88
2018-12-10T23:03:08.702Z,6.04
2018-12-10T23:05:45.318Z,5.90
2018-12-10T23:08:27.403Z,5.85
2018-12-10T23:11:13.406Z,5.95
2018-12-10T23:14:00.518Z,5.94
2018-12-10T23:16:37.071Z,5.97
2018-12-10T23:19:24.072Z,5.99
2018-12-10T23:21:59.775Z,6.10
2018-12-10T23:24:37.262Z,6.04
2018-12-10T23:27:13.921Z,5.85
2018-12-10T23:29:57.613Z,5.95
2018-12-10T23:32:35.520Z,5.97
2018-12-10T23:35:14.701Z,5.95
2018-12-10T23:37:51.562Z,5.98
2018-12-10T23:40:26.225Z,5.99
2018-12-10T23:43:03.900Z,5.95
2018-12-10T23:45:45.402Z,5.98
2018-12-10T23:49:14.909Z,5.96
2018-12-10T23:51:51.597Z,5.97
2018-12-10T23:54:29.314Z,6.00
2018-12-10T23:57:06.362Z,6.02
2018-12-10T23:59:49.172Z,6.07
